Time;durP1;ratioP1;P1;durP2;ratioP2;P2;SDS_P1;SDS_P2;PMS_P1;PMS_P2;Temp;Humidity;BMP_temperature;BMP_pressure;BME280_temperature;BME280_humidity;BME280_pressure;Samples;Min_cycle;Max_cycle;Signal;HPM_P1;HPM_P2
2023/06/12 00:00:22;;;;;;;;;;;21.30;68.80;;;;;;5073787;28;19908;-50
2023/06/12 00:02:48;;;;;;;;;;;21.30;68.80;;;;;;5073982;28;19961;-51
2023/06/12 00:05:20;;;;;;;;;;;21.30;68.80;;;;;;5073880;28;19948;-47
2023/06/12 00:07:47;;;;;;;;;;;21.20;69.40;;;;;;5073680;28;19915;-49
2023/06/12 00:10:12;;;;;;;;;;;21.20;69.00;;;;;;5073548;28;20365;-48
2023/06/12 00:12:38;;;;;;;;;;;21.10;69.30;;;;;;5073553;28;19913;-49
2023/06/12 00:15:04;;;;;;;;;;;21.10;69.60;;;;;;5073890;28;19909;-48
2023/06/12 00:17:33;;;;;;;;;;;21.10;69.60;;;;;;5073346;28;20361;-48
2023/06/12 00:19:59;;;;;;;;;;;21.00;69.90;;;;;;5073691;28;19912;-47
2023/06/12 00:22:25;;;;;;;;;;;20.90;69.90;;;;;;5073528;28;20015;-47
2023/06/12 00:24:50;;;;;;;;;;;20.90;70.10;;;;;;5073793;28;19909;-48
2023/06/12 00:27:16;;;;;;;;;;;20.90;70.30;;;;;;5073325;28;20335;-49
2023/06/12 00:29:42;;;;;;;;;;;20.80;70.50;;;;;;5073781;28;19958;-49
2023/06/12 00:32:07;;;;;;;;;;;20.80;70.90;;;;;;5073408;28;20276;-50
2023/06/12 00:34:33;;;;;;;;;;;20.70;70.70;;;;;;5072274;28;19961;-51
2023/06/12 00:36:58;;;;;;;;;;;20.70;71.60;;;;;;5073594;28;20261;-49
2023/06/12 00:39:24;;;;;;;;;;;20.60;71.20;;;;;;5073335;28;19920;-47
2023/06/12 00:41:50;;;;;;;;;;;20.60;71.80;;;;;;5071432;28;19962;-47
2023/06/12 00:44:16;;;;;;;;;;;20.50;71.70;;;;;;5055234;28;19908;-48
2023/06/12 00:46:41;;;;;;;;;;;20.50;71.80;;;;;;5054802;28;20306;-47
2023/06/12 00:49:07;;;;;;;;;;;20.40;72.30;;;;;;5071841;28;19940;-47
2023/06/12 00:51:33;;;;;;;;;;;20.40;72.20;;;;;;5072843;28;20003;-52
2023/06/12 00:54:00;;;;;;;;;;;20.40;72.30;;;;;;5073293;28;19912;-47
2023/06/12 00:56:26;;;;;;;;;;;20.30;72.20;;;;;;5072768;28;20570;-51
2023/06/12 00:58:52;;;;;;;;;;;20.30;72.30;;;;;;5072718;28;19919;-48
2023/06/12 01:01:24;;;;;;;;;;;20.30;72.70;;;;;;5054467;28;19912;-50
2023/06/12 01:03:56;;;;;;;;;;;20.20;72.60;;;;;;5072762;28;19919;-48
2023/06/12 01:06:29;;;;;;;;;;;20.20;72.80;;;;;;5054685;28;19915;-49
2023/06/12 01:09:04;;;;;;;;;;;20.20;72.70;;;;;;5054688;28;20372;-46
2023/06/12 01:11:31;;;;;;;;;;;20.10;73.20;;;;;;5054428;28;19908;-49
2023/06/12 01:13:57;;;;;;;;;;;20.10;73.00;;;;;;5054673;28;19908;-50
2023/06/12 01:16:23;;;;;;;;;;;20.10;73.20;;;;;;5054335;28;20364;-50
2023/06/12 01:18:49;;;;;;;;;;;20.00;73.40;;;;;;5071109;28;19912;-49
2023/06/12 01:21:21;;;;;;;;;;;20.00;73.10;;;;;;5054140;28;19908;-48
2023/06/12 01:24:08;;;;;;;;;;;20.00;73.50;;;;;;5054281;28;19913;-48
2023/06/12 01:26:52;;;;;;;;;;;20.00;73.90;;;;;;5054046;28;19912;-47
2023/06/12 01:29:45;;;;;;;;;;;19.90;73.80;;;;;;5054228;28;19908;-49
2023/06/12 01:32:14;;;;;;;;;;;19.80;74.70;;;;;;5053921;28;20006;-47
2023/06/12 01:34:54;;;;;;;;;;;19.70;75.20;;;;;;5054081;28;20003;-47
2023/06/12 01:37:31;;;;;;;;;;;19.60;75.10;;;;;;5053855;28;19908;-51
2023/06/12 01:39:58;;;;;;;;;;;19.50;75.50;;;;;;5054049;28;19912;-48
2023/06/12 01:42:29;;;;;;;;;;;19.50;76.00;;;;;;5070449;28;19995;-48
2023/06/12 01:44:55;;;;;;;;;;;19.40;76.00;;;;;;5053866;28;20292;-48
2023/06/12 01:47:21;;;;;;;;;;;19.30;76.40;;;;;;5071506;28;19909;-50
2023/06/12 01:49:48;;;;;;;;;;;19.20;77.10;;;;;;5070492;28;20288;-49
2023/06/12 01:52:14;;;;;;;;;;;19.20;77.10;;;;;;5070846;28;19908;-49
2023/06/12 01:54:40;;;;;;;;;;;19.10;77.80;;;;;;5070344;28;20343;-49
2023/06/12 01:57:08;;;;;;;;;;;19.00;78.20;;;;;;5070112;28;19915;-47
2023/06/12 01:59:35;;;;;;;;;;;19.10;78.70;;;;;;5070307;28;20008;-47
2023/06/12 02:02:02;;;;;;;;;;;19.00;78.50;;;;;;5069975;28;19940;-47
2023/06/12 02:04:29;;;;;;;;;;;18.80;79.20;;;;;;5053551;28;20416;-51
2023/06/12 02:06:56;;;;;;;;;;;18.70;79.40;;;;;;5070232;28;19969;-47
2023/06/12 02:09:22;;;;;;;;;;;18.60;79.70;;;;;;5071488;28;19908;-47
2023/06/12 02:11:48;;;;;;;;;;;18.60;79.90;;;;;;5053200;28;20262;-51
2023/06/12 02:14:15;;;;;;;;;;;18.60;80.10;;;;;;5053555;28;20007;-47
2023/06/12 02:16:41;;;;;;;;;;;18.50;80.40;;;;;;5071104;28;19915;-47
2023/06/12 02:19:07;;;;;;;;;;;18.50;81.20;;;;;;5053315;28;20203;-48
2023/06/12 02:21:33;;;;;;;;;;;18.50;81.60;;;;;;5053053;28;19998;-47
2023/06/12 02:23:59;;;;;;;;;;;18.50;82.20;;;;;;5053209;28;20008;-47
2023/06/12 02:26:26;;;;;;;;;;;18.40;80.80;;;;;;5052946;28;20003;-48
2023/06/12 02:29:05;;;;;;;;;;;18.50;81.50;;;;;;5053187;28;20338;-49
2023/06/12 02:31:31;;;;;;;;;;;18.40;82.60;;;;;;5036388;28;19909;-50
2023/06/12 02:33:57;;;;;;;;;;;18.40;82.00;;;;;;5053224;28;20312;-51
2023/06/12 02:36:22;;;;;;;;;;;18.40;82.40;;;;;;5069598;28;20368;-48
2023/06/12 02:38:48;;;;;;;;;;;18.30;82.60;;;;;;5053190;28;20143;-50
2023/06/12 02:41:14;;;;;;;;;;;18.40;82.90;;;;;;5069730;28;20422;-48
2023/06/12 02:43:40;;;;;;;;;;;18.30;82.80;;;;;;5053082;28;19908;-48
2023/06/12 02:46:06;;;;;;;;;;;18.40;83.00;;;;;;5071064;28;19962;-49
2023/06/12 02:48:31;;;;;;;;;;;18.30;82.90;;;;;;5053057;28;19915;-48
2023/06/12 02:50:58;;;;;;;;;;;18.30;82.60;;;;;;5052911;28;19915;-50
2023/06/12 02:53:23;;;;;;;;;;;18.30;82.70;;;;;;5069792;28;19909;-48
2023/06/12 02:55:49;;;;;;;;;;;18.20;82.80;;;;;;5069988;28;19916;-48
2023/06/12 02:58:15;;;;;;;;;;;18.20;83.40;;;;;;5070991;28;19916;-50
2023/06/12 03:00:41;;;;;;;;;;;18.10;83.30;;;;;;5069834;28;19962;-50
2023/06/12 03:03:07;;;;;;;;;;;18.10;84.00;;;;;;5070044;28;19909;-48
2023/06/12 03:05:34;;;;;;;;;;;18.00;83.30;;;;;;5055731;28;20002;-48
2023/06/12 03:08:02;;;;;;;;;;;18.00;84.40;;;;;;5057009;28;20241;-51
2023/06/12 03:10:29;;;;;;;;;;;17.80;84.60;;;;;;5056653;28;20380;-48
2023/06/12 03:12:55;;;;;;;;;;;17.70;85.30;;;;;;5073659;28;19951;-48
2023/06/12 03:15:22;;;;;;;;;;;17.70;85.40;;;;;;5056827;28;20389;-50
2023/06/12 03:17:48;;;;;;;;;;;17.70;85.90;;;;;;5074544;28;19963;-49
2023/06/12 03:20:14;;;;;;;;;;;17.70;86.40;;;;;;5073496;28;19913;-48
2023/06/12 03:22:41;;;;;;;;;;;17.60;87.30;;;;;;5074631;28;20014;-50
2023/06/12 03:25:07;;;;;;;;;;;17.50;86.90;;;;;;5074744;28;19990;-52
2023/06/12 03:27:35;;;;;;;;;;;17.50;86.90;;;;;;5056518;28;19975;-48
2023/06/12 03:30:00;;;;;;;;;;;17.50;87.60;;;;;;5056477;28;19943;-48
2023/06/12 03:32:28;;;;;;;;;;;17.40;88.10;;;;;;5056464;28;19998;-47
2023/06/12 03:34:57;;;;;;;;;;;17.40;87.00;;;;;;5073215;28;19908;-49
2023/06/12 03:37:27;;;;;;;;;;;17.50;87.30;;;;;;5056262;28;19916;-47
2023/06/12 03:39:54;;;;;;;;;;;17.40;88.80;;;;;;5073054;28;19957;-48
2023/06/12 03:42:20;;;;;;;;;;;17.50;89.00;;;;;;5055923;28;19912;-48
2023/06/12 03:44:52;;;;;;;;;;;17.50;87.70;;;;;;5056344;28;20277;-47
2023/06/12 03:47:18;;;;;;;;;;;17.50;87.80;;;;;;5072686;28;19919;-50
2023/06/12 03:49:46;;;;;;;;;;;17.50;86.40;;;;;;5074158;28;19909;-51
2023/06/12 03:52:12;;;;;;;;;;;17.50;87.40;;;;;;5055849;28;19924;-48
2023/06/12 03:54:38;;;;;;;;;;;17.60;87.50;;;;;;5074353;28;19908;-49
2023/06/12 03:57:04;;;;;;;;;;;17.70;87.60;;;;;;5073865;28;19991;-48
2023/06/12 03:59:30;;;;;;;;;;;17.70;86.40;;;;;;5055945;28;19912;-50
2023/06/12 04:01:57;;;;;;;;;;;17.80;87.60;;;;;;5073452;28;19962;-47
2023/06/12 04:04:23;;;;;;;;;;;17.90;88.00;;;;;;5055863;28;19908;-47
2023/06/12 04:06:50;;;;;;;;;;;17.90;85.70;;;;;;5073565;28;19920;-49
2023/06/12 04:09:16;;;;;;;;;;;18.10;84.20;;;;;;5072347;28;19926;-48
2023/06/12 04:11:46;;;;;;;;;;;18.10;84.20;;;;;;5055409;28;19912;-48
2023/06/12 04:14:12;;;;;;;;;;;18.20;85.40;;;;;;5055839;28;20345;-49
2023/06/12 04:16:38;;;;;;;;;;;18.30;83.40;;;;;;5072767;28;20003;-47
2023/06/12 04:19:03;;;;;;;;;;;18.40;82.80;;;;;;5055515;28;20296;-50
2023/06/12 04:21:32;;;;;;;;;;;18.40;82.10;;;;;;5055354;28;20380;-52
2023/06/12 04:24:00;;;;;;;;;;;18.50;82.20;;;;;;5072360;28;19924;-48
2023/06/12 04:26:26;;;;;;;;;;;18.50;82.30;;;;;;5055194;28;19943;-48
2023/06/12 04:28:54;;;;;;;;;;;18.60;82.40;;;;;;5073271;28;19908;-48
2023/06/12 04:31:26;;;;;;;;;;;18.60;82.10;;;;;;5055112;28;20036;-49
2023/06/12 04:33:52;;;;;;;;;;;18.70;83.60;;;;;;5071896;28;19916;-47
2023/06/12 04:36:18;;;;;;;;;;;18.70;82.20;;;;;;5073059;28;20308;-48
2023/06/12 04:38:45;;;;;;;;;;;18.70;81.70;;;;;;5071850;28;19919;-50
2023/06/12 04:41:11;;;;;;;;;;;18.80;81.90;;;;;;5072753;28;19915;-47
2023/06/12 04:43:36;;;;;;;;;;;18.80;83.60;;;;;;5055273;28;19999;-51
2023/06/12 04:46:02;;;;;;;;;;;18.80;81.70;;;;;;5072905;28;20353;-48
2023/06/12 04:48:28;;;;;;;;;;;18.90;81.20;;;;;;5071834;28;20030;-48
2023/06/12 04:50:58;;;;;;;;;;;19.00;81.80;;;;;;5054834;28;20376;-47
2023/06/12 04:53:30;;;;;;;;;;;19.00;81.20;;;;;;5072881;28;19909;-48
2023/06/12 04:55:57;;;;;;;;;;;19.00;80.60;;;;;;5071130;28;19912;-47
2023/06/12 04:58:23;;;;;;;;;;;19.10;80.80;;;;;;5071515;28;19982;-49
2023/06/12 05:00:49;;;;;;;;;;;19.10;80.70;;;;;;5054475;28;19928;-48
2023/06/12 05:03:17;;;;;;;;;;;19.20;81.20;;;;;;5054761;28;19938;-48
2023/06/12 05:05:44;;;;;;;;;;;19.30;81.00;;;;;;5054864;28;19994;-48
2023/06/12 05:08:11;;;;;;;;;;;19.30;81.00;;;;;;5054449;28;19908;-49
2023/06/12 05:10:38;;;;;;;;;;;19.40;80.60;;;;;;5054339;28;19909;-47
2023/06/12 05:13:05;;;;;;;;;;;19.40;80.60;;;;;;5054525;28;19999;-47
2023/06/12 05:15:31;;;;;;;;;;;19.50;80.80;;;;;;5071239;28;20355;-50
2023/06/12 05:17:57;;;;;;;;;;;19.50;80.90;;;;;;5072163;28;19965;-50
2023/06/12 05:20:24;;;;;;;;;;;19.60;80.70;;;;;;5071033;28;19908;-50
2023/06/12 05:22:50;;;;;;;;;;;19.70;80.70;;;;;;5072310;28;19923;-47
2023/06/12 05:25:16;;;;;;;;;;;19.80;80.60;;;;;;5054275;28;19914;-48
2023/06/12 05:27:42;;;;;;;;;;;19.80;80.50;;;;;;5053141;28;19912;-47
2023/06/12 05:30:08;;;;;;;;;;;19.90;80.00;;;;;;5054372;28;19908;-48
2023/06/12 05:32:34;;;;;;;;;;;20.00;80.30;;;;;;5072410;28;19908;-49
2023/06/12 05:35:00;;;;;;;;;;;20.00;80.40;;;;;;5072308;28;19912;-48
2023/06/12 05:37:26;;;;;;;;;;;20.10;80.10;;;;;;5054366;28;19960;-50
2023/06/12 05:39:53;;;;;;;;;;;20.20;81.20;;;;;;5054123;28;19916;-52
2023/06/12 05:42:19;;;;;;;;;;;20.30;80.90;;;;;;5053976;28;19943;-51
2023/06/12 05:44:48;;;;;;;;;;;20.40;80.40;;;;;;5070767;28;20289;-47
2023/06/12 05:47:16;;;;;;;;;;;20.50;80.50;;;;;;5070582;28;20417;-52
2023/06/12 05:49:41;;;;;;;;;;;20.60;80.50;;;;;;5071986;28;20110;-48
2023/06/12 05:52:07;;;;;;;;;;;20.70;80.50;;;;;;5070273;28;19938;-48
2023/06/12 05:54:36;;;;;;;;;;;20.80;80.20;;;;;;5070349;28;19931;-51
2023/06/12 05:57:02;;;;;;;;;;;20.90;80.30;;;;;;5053795;28;19909;-48
2023/06/12 05:59:30;;;;;;;;;;;21.00;80.20;;;;;;5053790;28;19912;-49
2023/06/12 06:01:57;;;;;;;;;;;21.10;79.40;;;;;;5053364;28;19958;-48
2023/06/12 06:04:23;;;;;;;;;;;21.30;79.80;;;;;;5070524;28;20094;-50
2023/06/12 06:06:50;;;;;;;;;;;21.30;79.30;;;;;;5071352;28;19912;-48
2023/06/12 06:09:16;;;;;;;;;;;21.50;80.20;;;;;;5053502;28;19908;-48
2023/06/12 06:11:43;;;;;;;;;;;21.60;78.90;;;;;;5069998;28;19954;-48
2023/06/12 06:14:10;;;;;;;;;;;21.70;78.80;;;;;;5053465;28;19991;-51
2023/06/12 06:16:37;;;;;;;;;;;21.90;78.20;;;;;;5070077;28;19908;-48
2023/06/12 06:19:03;;;;;;;;;;;22.10;77.30;;;;;;5053366;28;19918;-48
2023/06/12 06:21:30;;;;;;;;;;;22.20;78.00;;;;;;5071166;28;19958;-48
2023/06/12 06:23:56;;;;;;;;;;;22.40;77.00;;;;;;5071478;28;19908;-49
2023/06/12 06:26:22;;;;;;;;;;;22.50;75.80;;;;;;5053050;28;20285;-47
2023/06/12 06:28:47;;;;;;;;;;;22.70;77.00;;;;;;5053319;28;19913;-48
2023/06/12 06:31:14;;;;;;;;;;;22.70;76.10;;;;;;5069754;28;19908;-47
2023/06/12 06:33:39;;;;;;;;;;;22.90;76.70;;;;;;5071232;28;19915;-47
2023/06/12 06:36:05;;;;;;;;;;;23.00;76.90;;;;;;5052954;28;19912;-47
2023/06/12 06:38:31;;;;;;;;;;;23.00;76.60;;;;;;5070839;28;19912;-47
2023/06/12 06:40:57;;;;;;;;;;;23.20;76.50;;;;;;5069648;28;19916;-47
2023/06/12 06:43:24;;;;;;;;;;;23.40;74.70;;;;;;5069909;28;19991;-47
2023/06/12 06:45:55;;;;;;;;;;;23.60;74.40;;;;;;5069791;28;19953;-50
2023/06/12 06:48:21;;;;;;;;;;;23.70;73.20;;;;;;5053314;28;19908;-48
2023/06/12 06:50:47;;;;;;;;;;;23.80;74.10;;;;;;5052953;28;20443;-47
2023/06/12 06:53:13;;;;;;;;;;;23.90;74.00;;;;;;5053027;28;20269;-47
2023/06/12 06:55:42;;;;;;;;;;;24.00;73.70;;;;;;5071101;28;20439;-48
2023/06/12 06:58:08;;;;;;;;;;;24.10;72.20;;;;;;5037029;28;20303;-48
2023/06/12 07:00:34;;;;;;;;;;;24.20;71.60;;;;;;5069572;28;19916;-47
2023/06/12 07:03:00;;;;;;;;;;;24.30;71.10;;;;;;5070981;28;19908;-48
2023/06/12 07:05:30;;;;;;;;;;;24.30;71.20;;;;;;5052970;28;19909;-48
2023/06/12 07:07:55;;;;;;;;;;;24.40;72.40;;;;;;5052657;28;19914;-48
2023/06/12 07:10:21;;;;;;;;;;;24.40;70.80;;;;;;5069546;28;20284;-48
2023/06/12 07:12:56;;;;;;;;;;;24.40;71.10;;;;;;5052875;28;19958;-47
2023/06/12 07:15:24;;;;;;;;;;;24.40;69.30;;;;;;5070787;28;19915;-48
2023/06/12 07:17:50;;;;;;;;;;;24.50;71.10;;;;;;5052493;28;20284;-47
2023/06/12 07:20:15;;;;;;;;;;;24.60;70.10;;;;;;5070870;28;19908;-51
2023/06/12 07:22:41;;;;;;;;;;;24.70;70.00;;;;;;5070742;28;19908;-50
2023/06/12 07:25:08;;;;;;;;;;;24.80;69.00;;;;;;5070739;28;20009;-49
2023/06/12 07:27:34;;;;;;;;;;;24.80;68.60;;;;;;5052612;28;19912;-50
2023/06/12 07:29:59;;;;;;;;;;;24.90;70.30;;;;;;5070680;28;19915;-51
2023/06/12 07:32:25;;;;;;;;;;;25.10;68.90;;;;;;5069250;28;19966;-49
2023/06/12 07:34:54;;;;;;;;;;;25.30;69.40;;;;;;5052697;28;19909;-50
2023/06/12 07:37:20;;;;;;;;;;;25.30;68.40;;;;;;5070368;28;19915;-52
2023/06/12 07:39:49;;;;;;;;;;;25.40;68.10;;;;;;5070523;28;19912;-51
2023/06/12 07:42:15;;;;;;;;;;;25.50;68.30;;;;;;5052544;28;19954;-51
2023/06/12 07:44:42;;;;;;;;;;;25.60;68.50;;;;;;5069322;28;19908;-50
2023/06/12 07:47:08;;;;;;;;;;;25.60;68.90;;;;;;5069300;28;20288;-52
2023/06/12 07:49:33;;;;;;;;;;;25.80;68.20;;;;;;5070958;28;19908;-48
2023/06/12 07:51:59;;;;;;;;;;;25.80;69.10;;;;;;5055208;28;20323;-49
2023/06/12 07:54:25;;;;;;;;;;;25.80;68.60;;;;;;5056291;28;19915;-52
2023/06/12 07:56:51;;;;;;;;;;;25.80;68.70;;;;;;5056261;28;19962;-49
2023/06/12 07:59:18;;;;;;;;;;;25.80;69.50;;;;;;5055849;28;19912;-48
2023/06/12 08:01:49;;;;;;;;;;;25.90;69.30;;;;;;5072630;28;20003;-49
2023/06/12 08:04:18;;;;;;;;;;;25.90;69.10;;;;;;5056004;28;20167;-48
2023/06/12 08:06:47;;;;;;;;;;;25.90;68.60;;;;;;5055635;28;19943;-49
2023/06/12 08:09:15;;;;;;;;;;;25.80;67.80;;;;;;5072623;28;19958;-51
2023/06/12 08:11:41;;;;;;;;;;;25.70;69.20;;;;;;5072243;28;19946;-48
2023/06/12 08:14:08;;;;;;;;;;;25.70;69.20;;;;;;5072368;28;20369;-50
2023/06/12 08:16:35;;;;;;;;;;;25.60;68.90;;;;;;5055680;28;19908;-49
2023/06/12 08:19:00;;;;;;;;;;;25.50;70.60;;;;;;5055706;28;19990;-48
2023/06/12 08:21:29;;;;;;;;;;;25.60;70.20;;;;;;5055513;28;19912;-48
2023/06/12 08:23:54;;;;;;;;;;;25.60;69.00;;;;;;5072379;28;19957;-51
2023/06/12 08:26:21;;;;;;;;;;;25.70;69.90;;;;;;5073625;28;19962;-48
2023/06/12 08:28:50;;;;;;;;;;;25.80;70.90;;;;;;5072610;28;20390;-53
2023/06/12 08:31:18;;;;;;;;;;;25.80;69.80;;;;;;5072021;28;19992;-51
2023/06/12 08:33:44;;;;;;;;;;;25.90;70.20;;;;;;5072223;28;19927;-48
2023/06/12 08:36:10;;;;;;;;;;;26.10;71.70;;;;;;5072150;28;19908;-50
2023/06/12 08:38:36;;;;;;;;;;;26.10;68.80;;;;;;5073547;28;20011;-48
2023/06/12 08:41:03;;;;;;;;;;;26.20;67.70;;;;;;5071856;28;20368;-49
2023/06/12 08:43:30;;;;;;;;;;;26.40;66.90;;;;;;5072114;28;20387;-48
2023/06/12 08:45:56;;;;;;;;;;;26.50;66.00;;;;;;5055173;28;19943;-48
2023/06/12 08:48:23;;;;;;;;;;;26.40;67.30;;;;;;5073343;28;20003;-48
2023/06/12 08:50:51;;;;;;;;;;;26.40;68.20;;;;;;5072910;28;19909;-50
2023/06/12 08:53:16;;;;;;;;;;;26.50;67.20;;;;;;5073004;28;19914;-48
2023/06/12 08:55:44;;;;;;;;;;;26.40;66.60;;;;;;5072836;28;20015;-51
2023/06/12 08:58:10;;;;;;;;;;;26.40;67.40;;;;;;5072644;28;19912;-48
2023/06/12 09:00:36;;;;;;;;;;;26.40;68.60;;;;;;5072917;28;19909;-50
2023/06/12 09:03:04;;;;;;;;;;;26.50;69.40;;;;;;5072730;28;19919;-49
2023/06/12 09:05:33;;;;;;;;;;;26.70;68.80;;;;;;5072727;28;19912;-50
2023/06/12 09:08:03;;;;;;;;;;;26.80;69.30;;;;;;5072380;28;19958;-48
2023/06/12 09:10:30;;;;;;;;;;;26.90;70.00;;;;;;5072413;28;19915;-51
2023/06/12 09:12:56;;;;;;;;;;;27.10;68.10;;;;;;5072563;28;20419;-48
2023/06/12 09:15:22;;;;;;;;;;;27.10;68.20;;;;;;5072475;28;20356;-47
2023/06/12 09:17:52;;;;;;;;;;;27.20;67.30;;;;;;5072188;28;19995;-49
2023/06/12 09:20:28;;;;;;;;;;;27.30;66.40;;;;;;5072210;28;20394;-50
2023/06/12 09:22:55;;;;;;;;;;;27.30;66.70;;;;;;5072345;28;20085;-48
2023/06/12 09:25:21;;;;;;;;;;;27.40;68.70;;;;;;5072351;28;19912;-49
2023/06/12 09:27:47;;;;;;;;;;;27.50;67.30;;;;;;5071998;28;19913;-50
2023/06/12 09:30:13;;;;;;;;;;;27.50;66.50;;;;;;5072066;28;19962;-52
2023/06/12 09:32:43;;;;;;;;;;;27.40;66.80;;;;;;5072033;28;19912;-48
2023/06/12 09:35:09;;;;;;;;;;;27.50;66.70;;;;;;5071967;28;20500;-50
2023/06/12 09:37:35;;;;;;;;;;;27.40;66.70;;;;;;5071833;28;19962;-50
2023/06/12 09:40:10;;;;;;;;;;;27.40;66.60;;;;;;5071921;28;19952;-48
2023/06/12 09:42:37;;;;;;;;;;;27.40;67.00;;;;;;5071943;28;19919;-48
2023/06/12 09:45:16;;;;;;;;;;;27.40;66.30;;;;;;5071911;28;20010;-50
2023/06/12 09:47:48;;;;;;;;;;;27.60;66.30;;;;;;5071701;28;19909;-53
2023/06/12 09:50:15;;;;;;;;;;;27.50;66.10;;;;;;5071735;28;19931;-52
2023/06/12 09:52:41;;;;;;;;;;;27.60;66.70;;;;;;5072002;28;19930;-48
2023/06/12 09:55:08;;;;;;;;;;;27.70;66.10;;;;;;5072053;28;19908;-49
2023/06/12 09:57:35;;;;;;;;;;;27.80;65.30;;;;;;5071573;28;19908;-48
2023/06/12 10:00:11;;;;;;;;;;;27.80;64.40;;;;;;5071559;28;19974;-48
2023/06/12 10:02:43;;;;;;;;;;;27.90;64.60;;;;;;5071624;28;19999;-49
2023/06/12 10:05:16;;;;;;;;;;;28.00;63.30;;;;;;5071599;28;19920;-49
2023/06/12 10:07:47;;;;;;;;;;;28.00;63.10;;;;;;5071451;28;19908;-48
2023/06/12 10:10:13;;;;;;;;;;;27.90;63.40;;;;;;5071306;28;19934;-48
2023/06/12 10:12:39;;;;;;;;;;;27.90;64.20;;;;;;5071675;28;19920;-49
2023/06/12 10:15:06;;;;;;;;;;;28.00;63.80;;;;;;5071638;28;19999;-48
2023/06/12 10:17:32;;;;;;;;;;;28.10;64.00;;;;;;5071551;28;19916;-48
2023/06/12 10:19:58;;;;;;;;;;;28.30;63.10;;;;;;5071190;28;19958;-48
2023/06/12 10:22:24;;;;;;;;;;;28.40;62.70;;;;;;5071318;28;19910;-48
2023/06/12 10:24:50;;;;;;;;;;;28.70;62.50;;;;;;5071361;28;19916;-49
2023/06/12 10:27:17;;;;;;;;;;;28.70;61.80;;;;;;5071020;28;19912;-49
2023/06/12 10:29:42;;;;;;;;;;;28.70;61.40;;;;;;5071400;28;19909;-48
2023/06/12 10:32:09;;;;;;;;;;;28.80;61.00;;;;;;5071449;28;19927;-48
2023/06/12 10:34:42;;;;;;;;;;;28.80;61.50;;;;;;5053440;28;19908;-48
2023/06/12 10:37:28;;;;;;;;;;;28.80;60.20;;;;;;5071136;28;20411;-49
2023/06/12 10:40:15;;;;;;;;;;;28.80;60.70;;;;;;5071125;28;19912;-49
2023/06/12 10:43:05;;;;;;;;;;;28.90;59.90;;;;;;5071124;28;19978;-48
2023/06/12 10:45:31;;;;;;;;;;;29.10;59.50;;;;;;5065464;28;19952;-51
2023/06/12 10:48:03;;;;;;;;;;;29.10;59.60;;;;;;5070844;28;20007;-48
2023/06/12 10:50:29;;;;;;;;;;;29.20;58.80;;;;;;5070996;28;19915;-49
2023/06/12 10:52:56;;;;;;;;;;;29.20;58.30;;;;;;5071170;28;19935;-48
2023/06/12 10:55:27;;;;;;;;;;;29.20;57.90;;;;;;5071362;28;19909;-48
2023/06/12 10:57:57;;;;;;;;;;;29.30;57.20;;;;;;5071083;28;19909;-50
2023/06/12 11:00:24;;;;;;;;;;;29.20;57.20;;;;;;5071279;28;20372;-48
2023/06/12 11:02:57;;;;;;;;;;;29.20;57.60;;;;;;5071012;28;19959;-48
2023/06/12 11:05:23;;;;;;;;;;;29.30;57.90;;;;;;5071338;28;19908;-50
2023/06/12 11:07:49;;;;;;;;;;;29.30;57.90;;;;;;5071331;28;19923;-47
2023/06/12 11:10:15;;;;;;;;;;;29.30;58.10;;;;;;5071050;28;19908;-47
2023/06/12 11:12:48;;;;;;;;;;;29.40;57.60;;;;;;5070921;28;19909;-51
2023/06/12 11:15:14;;;;;;;;;;;29.40;57.90;;;;;;5070964;28;19931;-49
2023/06/12 11:17:40;;;;;;;;;;;29.50;56.60;;;;;;5070720;28;19908;-49
2023/06/12 11:20:05;;;;;;;;;;;29.50;57.20;;;;;;5070700;28;20246;-47
2023/06/12 11:22:31;;;;;;;;;;;29.50;57.90;;;;;;5070819;28;19912;-47
2023/06/12 11:25:00;;;;;;;;;;;29.60;57.80;;;;;;5070854;28;20361;-48
2023/06/12 11:27:26;;;;;;;;;;;29.60;57.30;;;;;;5074412;28;19913;-47
2023/06/12 11:29:51;;;;;;;;;;;29.60;56.70;;;;;;5074587;28;19915;-48
2023/06/12 11:32:17;;;;;;;;;;;29.60;57.40;;;;;;5074349;28;19916;-48
2023/06/12 11:34:42;;;;;;;;;;;29.60;57.30;;;;;;5074698;28;20390;-47
2023/06/12 11:37:14;;;;;;;;;;;29.70;56.90;;;;;;5074371;28;19912;-47
2023/06/12 11:39:40;;;;;;;;;;;29.60;56.60;;;;;;5074379;28;19919;-49
2023/06/12 11:42:07;;;;;;;;;;;29.60;57.10;;;;;;5074018;28;19908;-47
2023/06/12 11:44:32;;;;;;;;;;;29.70;56.90;;;;;;5074394;28;19913;-48
2023/06/12 11:46:58;;;;;;;;;;;29.50;57.70;;;;;;5074187;28;19919;-52
2023/06/12 11:49:24;;;;;;;;;;;29.50;57.10;;;;;;5074252;28;19991;-47
2023/06/12 11:51:51;;;;;;;;;;;29.30;57.80;;;;;;5074166;28;20046;-48
2023/06/12 11:54:16;;;;;;;;;;;29.20;57.80;;;;;;5074275;28;20005;-50
2023/06/12 11:56:42;;;;;;;;;;;29.00;58.30;;;;;;5073750;28;20368;-53
2023/06/12 11:59:07;;;;;;;;;;;29.10;58.30;;;;;;5074102;28;19912;-49
2023/06/12 12:01:37;;;;;;;;;;;29.20;57.60;;;;;;5073933;28;19919;-49
2023/06/12 12:04:07;;;;;;;;;;;29.20;57.20;;;;;;5074046;28;20376;-48
2023/06/12 12:06:51;;;;;;;;;;;29.30;57.60;;;;;;5073796;28;20057;-48
2023/06/12 12:09:23;;;;;;;;;;;29.40;57.90;;;;;;5073835;28;19908;-49
2023/06/12 12:11:49;;;;;;;;;;;29.50;58.20;;;;;;5073553;28;19915;-48
2023/06/12 12:14:15;;;;;;;;;;;29.60;59.00;;;;;;5073959;28;19908;-48
2023/06/12 12:16:43;;;;;;;;;;;29.40;57.80;;;;;;5073534;28;20268;-48
2023/06/12 12:19:14;;;;;;;;;;;29.10;58.50;;;;;;5073623;28;19969;-48
2023/06/12 12:21:43;;;;;;;;;;;29.10;59.50;;;;;;5073369;28;19940;-49
2023/06/12 12:24:09;;;;;;;;;;;29.00;59.40;;;;;;5073558;28;19934;-49
2023/06/12 12:26:38;;;;;;;;;;;29.00;59.60;;;;;;5073400;28;19912;-48
2023/06/12 12:29:04;;;;;;;;;;;29.10;59.50;;;;;;5073589;28;20360;-49
2023/06/12 12:31:29;;;;;;;;;;;29.10;59.00;;;;;;5073234;28;19915;-47
2023/06/12 12:33:55;;;;;;;;;;;29.30;58.90;;;;;;5073512;28;19915;-47
2023/06/12 12:36:21;;;;;;;;;;;29.40;59.10;;;;;;5072636;28;20426;-49
2023/06/12 12:38:46;;;;;;;;;;;29.50;58.30;;;;;;5073140;28;19938;-48
2023/06/12 12:41:12;;;;;;;;;;;29.60;58.30;;;;;;5072907;28;20413;-48
2023/06/12 12:43:38;;;;;;;;;;;29.60;57.80;;;;;;5073256;28;19908;-50
2023/06/12 12:46:03;;;;;;;;;;;29.50;58.70;;;;;;5072986;28;20015;-48
2023/06/12 12:48:30;;;;;;;;;;;29.60;58.60;;;;;;5073099;28;19912;-49
2023/06/12 12:50:55;;;;;;;;;;;29.70;58.30;;;;;;5072758;28;19908;-48
2023/06/12 12:53:21;;;;;;;;;;;29.60;58.20;;;;;;5072902;28;19915;-47
2023/06/12 12:55:46;;;;;;;;;;;29.60;58.10;;;;;;5055122;28;19931;-47
2023/06/12 12:58:12;;;;;;;;;;;29.60;57.40;;;;;;5071608;28;20500;-47
2023/06/12 13:00:37;;;;;;;;;;;29.50;58.60;;;;;;5072731;28;19915;-48
2023/06/12 13:03:03;;;;;;;;;;;29.50;57.90;;;;;;5072877;28;19908;-48
2023/06/12 13:05:29;;;;;;;;;;;29.50;59.20;;;;;;5072860;28;20345;-47
2023/06/12 13:07:55;;;;;;;;;;;29.70;58.10;;;;;;5072636;28;19918;-48
2023/06/12 13:10:20;;;;;;;;;;;29.90;57.40;;;;;;5072480;28;19912;-49
2023/06/12 13:12:46;;;;;;;;;;;30.10;57.70;;;;;;5072705;28;19999;-50
2023/06/12 13:15:12;;;;;;;;;;;30.20;56.90;;;;;;5073021;28;20356;-51
2023/06/12 13:17:38;;;;;;;;;;;30.30;56.80;;;;;;5072416;28;19912;-50
2023/06/12 13:20:04;;;;;;;;;;;30.20;56.50;;;;;;5072262;28;19966;-50
2023/06/12 13:22:31;;;;;;;;;;;30.20;56.40;;;;;;5072069;28;19908;-47
2023/06/12 13:24:56;;;;;;;;;;;30.20;57.90;;;;;;5072649;28;19908;-49
2023/06/12 13:27:22;;;;;;;;;;;30.40;56.30;;;;;;5071937;28;20311;-50
2023/06/12 13:29:48;;;;;;;;;;;30.40;57.30;;;;;;5072219;28;19915;-53
2023/06/12 13:32:13;;;;;;;;;;;30.40;56.40;;;;;;5071464;28;20003;-49
2023/06/12 13:34:39;;;;;;;;;;;30.40;57.20;;;;;;5072076;28;20428;-51
2023/06/12 13:37:07;;;;;;;;;;;30.40;56.10;;;;;;5072273;28;19916;-49
2023/06/12 13:39:33;;;;;;;;;;;30.10;56.20;;;;;;5072322;28;19916;-50
2023/06/12 13:41:59;;;;;;;;;;;29.90;56.30;;;;;;5072095;28;20373;-48
2023/06/12 13:44:25;;;;;;;;;;;29.80;56.20;;;;;;5072283;28;20388;-48
2023/06/12 13:46:51;;;;;;;;;;;29.60;56.50;;;;;;5072028;28;19908;-48
2023/06/12 13:49:17;;;;;;;;;;;29.30;56.40;;;;;;5071255;28;19908;-47
2023/06/12 13:51:42;;;;;;;;;;;29.20;56.60;;;;;;5072028;28;19913;-48
2023/06/12 13:54:09;;;;;;;;;;;29.00;56.40;;;;;;5072031;28;20166;-49
2023/06/12 13:56:35;;;;;;;;;;;28.80;56.40;;;;;;5071904;28;19908;-49
2023/06/12 13:59:01;;;;;;;;;;;28.80;57.20;;;;;;5071650;28;19912;-52
2023/06/12 14:01:27;;;;;;;;;;;28.70;57.40;;;;;;5053566;28;19995;-49
2023/06/12 14:03:53;;;;;;;;;;;28.50;57.30;;;;;;5071586;28;20300;-47
2023/06/12 14:06:22;;;;;;;;;;;28.50;57.30;;;;;;5071583;28;19916;-49
2023/06/12 14:08:51;;;;;;;;;;;28.50;57.50;;;;;;5071647;28;19915;-50
2023/06/12 14:11:20;;;;;;;;;;;28.40;58.40;;;;;;5071491;28;19908;-48
2023/06/12 14:13:46;;;;;;;;;;;28.30;58.50;;;;;;5071437;28;19958;-52
2023/06/12 14:16:12;;;;;;;;;;;28.30;58.10;;;;;;5071380;28;19943;-50